createdAt,value
2024-02-19T00:00:53.560Z,195.70
2024-02-19T00:03:20.573Z,204.10
2024-02-19T00:05:47.308Z,188.90
2024-02-19T00:08:14.317Z,199.50
2024-02-19T00:10:41.201Z,185.90
2024-02-19T00:13:07.989Z,186.90
2024-02-19T00:15:34.862Z,187.20
2024-02-19T00:18:02.406Z,167.90
2024-02-19T00:20:29.316Z,184.30
2024-02-19T00:22:56.160Z,178.80
2024-02-19T00:25:22.831Z,180.10
2024-02-19T00:27:49.832Z,167.50
2024-02-19T00:30:16.602Z,167.40
2024-02-19T00:32:43.290Z,181.10
2024-02-19T00:35:10.100Z,165.00
2024-02-19T00:37:36.832Z,156.20
2024-02-19T00:40:04.244Z,170.80
2024-02-19T00:42:30.934Z,173.90
2024-02-19T00:44:57.585Z,172.00
2024-02-19T00:47:24.592Z,169.80
2024-02-19T00:49:51.322Z,167.40
2024-02-19T00:52:18.286Z,176.60
2024-02-19T00:54:45.436Z,175.90
2024-02-19T00:57:12.535Z,170.80
2024-02-19T00:59:39.279Z,157.20
2024-02-19T01:02:06.275Z,148.90
2024-02-19T01:04:33.336Z,151.70
2024-02-19T01:07:00.398Z,150.20
2024-02-19T01:09:27.167Z,155.40
2024-02-19T01:11:53.914Z,152.30
2024-02-19T01:14:20.550Z,146.00
2024-02-19T01:16:47.203Z,162.10
2024-02-19T01:19:14.221Z,156.80
2024-02-19T01:21:41.107Z,124.90
2024-02-19T01:24:07.939Z,125.30
2024-02-19T01:26:34.695Z,153.90
2024-02-19T01:29:01.534Z,153.90
2024-02-19T01:31:28.497Z,147.10
2024-02-19T01:33:55.578Z,146.30
2024-02-19T01:36:22.524Z,147.20
2024-02-19T01:38:49.249Z,135.20
2024-02-19T01:41:16.505Z,149.80
2024-02-19T01:43:43.235Z,133.50
2024-02-19T01:46:10.823Z,143.10
2024-02-19T01:48:38.200Z,133.20
2024-02-19T01:51:05.144Z,136.40
2024-02-19T01:53:31.956Z,132.40
2024-02-19T01:55:59.737Z,132.80
2024-02-19T01:58:27.323Z,136.20
2024-02-19T02:00:55.007Z,132.00
2024-02-19T02:03:24.109Z,127.60
2024-02-19T02:05:50.944Z,131.50
2024-02-19T02:08:18.213Z,117.80
2024-02-19T02:10:45.010Z,114.10
2024-02-19T02:13:11.873Z,116.80
2024-02-19T02:15:38.723Z,112.10
2024-02-19T02:18:06.063Z,110.30
2024-02-19T02:20:33.534Z,110.10
2024-02-19T02:23:00.470Z,110.60
2024-02-19T02:25:27.251Z,121.00
2024-02-19T02:27:54.259Z,113.20
2024-02-19T02:30:21.137Z,115.20
2024-02-19T02:32:48.358Z,114.20
2024-02-19T02:35:15.133Z,117.90
2024-02-19T02:37:41.781Z,111.70
2024-02-19T02:40:09.176Z,109.70
2024-02-19T02:42:36.002Z,108.40
2024-02-19T02:45:02.858Z,107.40
2024-02-19T02:47:29.566Z,100.50
2024-02-19T02:49:56.392Z,104.10
2024-02-19T02:52:23.682Z,100.80
2024-02-19T02:54:50.497Z,104.10
2024-02-19T02:57:17.273Z,102.40
2024-02-19T02:59:44.181Z,101.90
2024-02-19T03:02:11.489Z,91.10
2024-02-19T03:04:38.584Z,92.70
2024-02-19T03:07:05.823Z,89.00
2024-02-19T03:09:32.846Z,90.50
2024-02-19T03:11:59.624Z,100.90
2024-02-19T03:14:26.363Z,96.60
2024-02-19T03:16:53.177Z,93.70
2024-02-19T03:19:20.025Z,99.50
2024-02-19T03:21:46.988Z,99.00
2024-02-19T03:24:14.257Z,105.60
2024-02-19T03:26:41.902Z,103.60
2024-02-19T03:29:14.885Z,96.10
2024-02-19T03:31:43.435Z,95.80
2024-02-19T03:34:10.746Z,96.50
2024-02-19T03:36:38.205Z,94.60
2024-02-19T03:39:05.880Z,100.30
2024-02-19T03:41:33.278Z,99.70
2024-02-19T03:44:00.887Z,94.50
2024-02-19T03:46:27.743Z,97.80
2024-02-19T03:48:57.905Z,95.00
2024-02-19T03:51:24.868Z,94.30
2024-02-19T03:53:51.875Z,95.20
2024-02-19T03:56:19.323Z,92.40
2024-02-19T03:58:46.878Z,90.50
2024-02-19T04:01:14.812Z,93.60
2024-02-19T04:03:41.804Z,97.30
2024-02-19T04:06:09.004Z,103.90
2024-02-19T04:08:35.808Z,111.70
2024-02-19T04:11:03.049Z,109.20
2024-02-19T04:13:29.759Z,108.80
2024-02-19T04:15:56.748Z,95.90
2024-02-19T04:18:24.152Z,102.10
2024-02-19T04:20:51.199Z,104.20
2024-02-19T04:23:18.018Z,102.20
2024-02-19T04:25:44.797Z,100.70
2024-02-19T04:28:11.871Z,99.20
2024-02-19T04:30:38.935Z,105.90
2024-02-19T04:33:06.174Z,101.20
2024-02-19T04:35:33.277Z,111.00
2024-02-19T04:38:00.141Z,110.70
2024-02-19T04:40:27.064Z,123.90
2024-02-19T04:42:53.998Z,112.40
2024-02-19T04:45:21.299Z,114.40
2024-02-19T04:47:48.072Z,123.10
2024-02-19T04:50:15.555Z,119.40
2024-02-19T04:52:42.360Z,125.40
2024-02-19T04:55:09.719Z,122.90
2024-02-19T04:57:36.543Z,116.30
2024-02-19T05:00:03.496Z,107.90
2024-02-19T05:02:30.240Z,122.00
2024-02-19T05:04:57.146Z,119.50
2024-02-19T05:07:24.010Z,132.20
2024-02-19T05:09:51.312Z,130.20
2024-02-19T05:12:18.135Z,136.90
2024-02-19T05:14:44.897Z,127.00
2024-02-19T05:17:11.727Z,116.60
2024-02-19T05:19:38.506Z,124.40
2024-02-19T05:22:05.316Z,127.40
2024-02-19T05:24:32.472Z,127.00
2024-02-19T05:26:59.219Z,126.20
2024-02-19T05:29:26.076Z,124.00
2024-02-19T05:31:52.953Z,126.20
2024-02-19T05:34:19.946Z,129.60
2024-02-19T05:36:47.165Z,134.10
2024-02-19T05:39:13.973Z,126.00
2024-02-19T05:41:41.155Z,129.00
2024-02-19T05:44:07.884Z,130.40
2024-02-19T05:46:34.645Z,128.60
2024-02-19T05:49:02.242Z,125.00
2024-02-19T05:51:29.238Z,129.50
2024-02-19T05:53:56.564Z,178.50
2024-02-19T05:56:23.747Z,175.80
2024-02-19T05:58:50.497Z,169.70
2024-02-19T06:01:18.529Z,157.80
2024-02-19T06:03:45.683Z,141.40
2024-02-19T06:06:12.875Z,165.50
2024-02-19T06:08:39.849Z,169.20
2024-02-19T06:11:06.840Z,178.30
2024-02-19T06:13:34.026Z,139.50
2024-02-19T06:16:00.865Z,135.60
2024-02-19T06:18:27.732Z,143.80
2024-02-19T06:20:54.576Z,157.00
2024-02-19T06:23:21.322Z,133.50
2024-02-19T06:25:48.205Z,138.30
2024-02-19T06:28:14.943Z,123.80
2024-02-19T06:30:42.022Z,130.50
2024-02-19T06:33:09.124Z,116.70
2024-02-19T06:35:36.184Z,107.10
2024-02-19T06:38:03.344Z,122.90
2024-02-19T06:40:30.147Z,121.90
2024-02-19T06:42:57.136Z,109.60
2024-02-19T06:45:24.085Z,102.40
2024-02-19T06:47:51.735Z,112.10
2024-02-19T06:50:18.624Z,124.70
2024-02-19T06:52:46.065Z,133.00
2024-02-19T06:55:17.978Z,128.80
2024-02-19T06:57:45.515Z,132.80
2024-02-19T07:00:13.655Z,127.20
2024-02-19T07:02:41.041Z,121.20
2024-02-19T07:05:09.296Z,123.20
2024-02-19T07:07:37.044Z,123.80
2024-02-19T07:10:04.256Z,119.40
2024-02-19T07:12:31.600Z,114.10
2024-02-19T07:14:58.328Z,112.20
2024-02-19T07:17:25.624Z,116.60
2024-02-19T07:19:52.360Z,115.50
2024-02-19T07:22:19.178Z,110.50
2024-02-19T07:24:46.041Z,101.40
2024-02-19T07:27:12.878Z,111.20
2024-02-19T07:29:39.707Z,121.10
2024-02-19T07:32:06.970Z,146.60
2024-02-19T07:34:33.831Z,138.30
2024-02-19T07:37:00.587Z,139.20
2024-02-19T07:39:27.440Z,125.10
2024-02-19T07:41:54.264Z,110.70
2024-02-19T07:44:21.005Z,111.80
2024-02-19T07:46:48.090Z,108.60
2024-02-19T07:49:15.023Z,99.10
2024-02-19T07:51:42.241Z,105.80
2024-02-19T07:54:09.295Z,88.70
2024-02-19T07:56:36.142Z,108.60
2024-02-19T07:59:02.856Z,90.30
2024-02-19T08:01:29.544Z,88.40
2024-02-19T08:03:56.479Z,100.40
2024-02-19T08:06:23.314Z,85.90
2024-02-19T08:08:50.193Z,92.00
2024-02-19T08:11:16.943Z,106.90
2024-02-19T08:13:43.911Z,85.60
2024-02-19T08:16:11.880Z,86.60
2024-02-19T08:18:38.999Z,86.60
2024-02-19T08:21:06.320Z,75.40
2024-02-19T08:23:33.143Z,90.20
2024-02-19T08:25:59.867Z,85.20
2024-02-19T08:28:26.762Z,80.70
2024-02-19T08:30:53.538Z,78.50
2024-02-19T08:33:20.118Z,73.90
2024-02-19T08:35:46.830Z,68.20
2024-02-19T08:38:13.562Z,68.30
2024-02-19T08:40:40.388Z,76.50
2024-02-19T08:43:07.236Z,67.90
2024-02-19T08:45:37.008Z,63.90
2024-02-19T08:48:05.561Z,66.70
2024-02-19T08:50:32.556Z,68.10
2024-02-19T08:52:59.199Z,72.40
2024-02-19T08:55:26.088Z,91.90
2024-02-19T08:57:52.853Z,86.10
2024-02-19T09:00:19.740Z,85.90
2024-02-19T09:02:46.373Z,90.60
2024-02-19T09:05:13.436Z,88.80
2024-02-19T09:07:40.248Z,89.60
2024-02-19T09:10:08.154Z,88.40
2024-02-19T09:12:35.616Z,82.50
2024-02-19T09:15:02.467Z,82.40
2024-02-19T09:17:29.332Z,77.00
2024-02-19T09:19:56.113Z,82.70
2024-02-19T09:22:23.092Z,82.50
2024-02-19T09:24:50.205Z,70.80
2024-02-19T09:27:17.223Z,77.10
2024-02-19T09:29:43.968Z,81.40
2024-02-19T09:32:10.707Z,83.40
2024-02-19T09:34:37.566Z,79.40
2024-02-19T09:37:04.776Z,90.70
2024-02-19T09:39:31.571Z,76.70
2024-02-19T09:41:58.182Z,70.70
2024-02-19T09:44:25.159Z,88.90
2024-02-19T09:46:57.754Z,128.70
2024-02-19T09:49:26.524Z,113.00
2024-02-19T09:51:58.053Z,68.90
2024-02-19T09:54:24.935Z,69.00
2024-02-19T09:56:52.028Z,67.50
2024-02-19T09:59:18.743Z,71.30
2024-02-19T10:01:45.593Z,67.80
2024-02-19T10:04:13.031Z,65.60
2024-02-19T10:06:43.111Z,103.50
2024-02-19T10:09:11.146Z,96.80
2024-02-19T10:11:38.401Z,80.70
2024-02-19T10:14:05.780Z,92.70
2024-02-19T10:16:32.941Z,85.10
2024-02-19T10:19:06.484Z,96.40
2024-02-19T10:21:34.185Z,459.30
2024-02-19T10:24:01.305Z,115.70
2024-02-19T10:26:28.262Z,121.70
2024-02-19T10:28:56.275Z,95.30
2024-02-19T10:31:23.397Z,104.10
2024-02-19T10:33:50.869Z,113.40
2024-02-19T10:36:19.062Z,117.50
2024-02-19T10:38:45.817Z,244.60
2024-02-19T10:41:13.691Z,162.00
2024-02-19T10:43:40.694Z,178.80
2024-02-19T10:46:07.521Z,142.30
2024-02-19T10:48:34.615Z,78.30
2024-02-19T10:51:05.170Z,100.70
2024-02-19T10:53:32.222Z,88.90
2024-02-19T10:56:36.118Z,60.80
2024-02-19T10:59:03.114Z,56.90
2024-02-19T11:01:46.017Z,58.00
2024-02-19T11:04:16.113Z,65.40
2024-02-19T11:06:54.081Z,65.60
2024-02-19T11:09:29.238Z,63.80
2024-02-19T11:11:59.426Z,59.20
2024-02-19T11:14:35.915Z,61.80
2024-02-19T11:17:04.511Z,58.90
2024-02-19T11:19:38.930Z,55.90
2024-02-19T11:22:11.610Z,63.40
2024-02-19T11:24:40.999Z,53.60
2024-02-19T11:27:08.463Z,56.20
2024-02-19T11:29:43.516Z,62.20
2024-02-19T11:32:15.156Z,53.70
2024-02-19T11:34:41.917Z,82.90
2024-02-19T11:37:11.438Z,65.10
2024-02-19T11:39:38.254Z,58.50
2024-02-19T11:42:05.114Z,56.40
2024-02-19T11:44:33.300Z,57.70
2024-02-19T11:47:00.570Z,59.80
2024-02-19T11:49:27.893Z,50.70
2024-02-19T11:52:04.311Z,108.70
2024-02-19T11:54:35.068Z,92.90
2024-02-19T11:57:02.939Z,57.10
2024-02-19T11:59:31.372Z,64.00
2024-02-19T12:01:58.229Z,62.10
2024-02-19T12:04:27.858Z,61.10
2024-02-19T12:06:55.032Z,72.70
2024-02-19T12:09:22.231Z,69.50
2024-02-19T12:11:48.901Z,80.40
2024-02-19T12:14:15.839Z,91.20
2024-02-19T12:16:42.563Z,117.10
2024-02-19T12:19:09.623Z,88.90
2024-02-19T12:21:36.481Z,86.10
2024-02-19T12:24:03.413Z,82.90
2024-02-19T12:26:31.189Z,80.80
2024-02-19T12:28:59.503Z,68.30
2024-02-19T12:31:26.818Z,63.70
2024-02-19T12:33:55.266Z,64.80
2024-02-19T12:36:22.408Z,66.50
2024-02-19T12:38:49.528Z,65.70
2024-02-19T12:41:17.531Z,67.70
2024-02-19T12:43:45.963Z,71.00
2024-02-19T12:46:14.717Z,64.60
2024-02-19T12:48:42.691Z,61.10
2024-02-19T12:51:10.608Z,68.20
2024-02-19T12:53:37.682Z,63.00
2024-02-19T12:56:05.145Z,102.00
2024-02-19T12:58:32.331Z,104.60
2024-02-19T13:01:00.001Z,75.80
2024-02-19T13:03:28.855Z,97.00
2024-02-19T13:05:55.729Z,223.50
2024-02-19T13:08:22.559Z,145.70
2024-02-19T13:10:49.322Z,67.40
2024-02-19T13:13:16.074Z,74.30
2024-02-19T13:15:45.219Z,328.40
2024-02-19T13:18:12.872Z,148.70
2024-02-19T13:20:41.208Z,47.60
2024-02-19T13:23:08.045Z,40.80
2024-02-19T13:25:34.829Z,121.40
2024-02-19T13:28:02.004Z,119.40
2024-02-19T13:30:28.905Z,138.00
2024-02-19T13:32:55.700Z,101.30
2024-02-19T13:35:22.611Z,73.90
2024-02-19T13:37:49.718Z,57.30
2024-02-19T13:40:16.582Z,24.50
2024-02-19T13:42:43.512Z,21.50
2024-02-19T13:45:10.846Z,22.60
2024-02-19T13:47:41.953Z,18.70
2024-02-19T13:50:09.841Z,18.90
2024-02-19T13:52:36.621Z,22.70
2024-02-19T13:55:03.499Z,19.10
2024-02-19T13:57:30.789Z,16.40
2024-02-19T13:59:57.826Z,20.50
2024-02-19T14:02:24.746Z,22.50
2024-02-19T14:04:51.562Z,23.80
2024-02-19T14:07:18.728Z,28.40
2024-02-19T14:09:45.452Z,29.80
2024-02-19T14:12:12.386Z,29.30
2024-02-19T14:14:39.124Z,28.00
2024-02-19T14:17:06.276Z,20.90
2024-02-19T14:19:36.908Z,20.60
2024-02-19T14:22:03.793Z,20.80
2024-02-19T14:24:30.731Z,17.70
2024-02-19T14:26:57.446Z,20.50
2024-02-19T14:29:24.208Z,27.30
2024-02-19T14:31:50.845Z,32.10
2024-02-19T14:34:17.690Z,26.70
2024-02-19T14:36:44.830Z,26.60
2024-02-19T14:39:11.691Z,22.50
2024-02-19T14:41:38.433Z,21.40
2024-02-19T14:44:05.279Z,21.30
2024-02-19T14:46:32.324Z,22.30
2024-02-19T14:48:59.396Z,20.10
2024-02-19T14:51:26.404Z,20.90
2024-02-19T14:53:53.489Z,19.20
2024-02-19T14:56:20.243Z,22.00
2024-02-19T14:58:47.212Z,23.30
2024-02-19T15:01:14.228Z,28.10
2024-02-19T15:03:41.023Z,31.80
2024-02-19T15:06:08.009Z,28.60
2024-02-19T15:08:34.877Z,29.40
2024-02-19T15:11:01.653Z,32.60
2024-02-19T15:13:28.707Z,28.30
2024-02-19T15:15:55.901Z,23.80
2024-02-19T15:18:23.011Z,26.30
2024-02-19T15:20:49.824Z,35.00
2024-02-19T15:23:16.675Z,38.10
2024-02-19T15:25:43.638Z,37.40
2024-02-19T15:28:10.441Z,36.60
2024-02-19T15:30:37.417Z,39.80
2024-02-19T15:33:04.250Z,34.70
2024-02-19T15:35:31.256Z,43.20
2024-02-19T15:37:58.081Z,47.70
2024-02-19T15:40:24.902Z,61.80
2024-02-19T15:42:51.846Z,44.50
2024-02-19T15:45:18.734Z,54.20
2024-02-19T15:47:45.513Z,35.00
2024-02-19T15:50:12.466Z,33.40
2024-02-19T15:52:39.507Z,25.90
2024-02-19T15:55:07.049Z,25.10
2024-02-19T15:57:34.193Z,21.80
2024-02-19T16:00:01.235Z,22.20
2024-02-19T16:02:28.192Z,18.50
2024-02-19T16:04:55.349Z,16.20
2024-02-19T16:07:25.139Z,15.60
2024-02-19T16:09:53.870Z,17.30
2024-02-19T16:12:20.468Z,29.00
2024-02-19T16:14:47.218Z,36.30
2024-02-19T16:17:13.893Z,41.20
2024-02-19T16:19:41.084Z,39.00
2024-02-19T16:22:08.366Z,41.10
2024-02-19T16:24:35.854Z,38.80
2024-02-19T16:27:03.449Z,34.70
2024-02-19T16:29:30.557Z,35.60
2024-02-19T16:31:57.673Z,34.50
2024-02-19T16:34:24.816Z,24.10
2024-02-19T16:36:51.726Z,32.50
2024-02-19T16:39:18.499Z,28.90
2024-02-19T16:41:45.077Z,29.20
2024-02-19T16:44:11.729Z,24.40
2024-02-19T16:46:38.654Z,28.10
2024-02-19T16:49:05.586Z,29.60
2024-02-19T16:51:32.381Z,29.90
2024-02-19T16:53:59.131Z,33.50
2024-02-19T16:56:25.880Z,27.00
2024-02-19T16:58:52.730Z,33.10
2024-02-19T17:01:19.614Z,30.00
2024-02-19T17:03:46.637Z,42.90
2024-02-19T17:06:13.542Z,74.70
2024-02-19T17:08:40.443Z,55.60
2024-02-19T17:11:07.220Z,51.80
2024-02-19T17:13:34.231Z,45.00
2024-02-19T17:16:01.030Z,44.90
2024-02-19T17:18:27.823Z,46.70
2024-02-19T17:20:54.899Z,34.70
2024-02-19T17:23:21.792Z,40.20
2024-02-19T17:25:48.944Z,36.70
2024-02-19T17:28:15.734Z,30.70
2024-02-19T17:30:42.798Z,28.40
2024-02-19T17:33:15.683Z,28.20
2024-02-19T17:35:45.568Z,29.80
2024-02-19T17:38:12.792Z,29.50
2024-02-19T17:40:39.749Z,127.40
2024-02-19T17:43:06.588Z,544.30
2024-02-19T17:45:33.574Z,306.00
2024-02-19T17:48:00.609Z,148.10
2024-02-19T17:50:27.666Z,108.30
2024-02-19T17:52:54.413Z,128.00
2024-02-19T17:55:21.378Z,95.70
2024-02-19T17:57:48.371Z,57.10
2024-02-19T18:00:15.605Z,73.90
2024-02-19T18:02:42.540Z,65.40
2024-02-19T18:05:09.393Z,79.40
2024-02-19T18:07:36.310Z,47.90
2024-02-19T18:10:04.273Z,48.60
2024-02-19T18:12:30.912Z,49.10
2024-02-19T18:14:57.616Z,49.50
2024-02-19T18:17:24.326Z,134.80
2024-02-19T18:19:51.247Z,105.60
2024-02-19T18:22:18.352Z,179.40
2024-02-19T18:24:45.180Z,221.90
2024-02-19T18:27:11.858Z,177.50
2024-02-19T18:29:38.602Z,248.30
2024-02-19T18:32:05.887Z,170.00
2024-02-19T18:34:32.923Z,266.00
2024-02-19T18:36:59.709Z,153.20
2024-02-19T18:39:27.593Z,274.00
2024-02-19T18:41:54.441Z,156.60
2024-02-19T18:44:21.674Z,148.90
2024-02-19T18:46:48.533Z,113.10
2024-02-19T18:49:15.748Z,66.40
2024-02-19T18:51:42.864Z,49.70
2024-02-19T18:54:09.599Z,44.90
2024-02-19T18:56:36.342Z,31.70
2024-02-19T18:59:03.087Z,23.40
2024-02-19T19:01:29.940Z,18.00
2024-02-19T19:03:56.957Z,15.00
2024-02-19T19:06:23.784Z,18.90
2024-02-19T19:08:50.695Z,18.20
2024-02-19T19:11:17.476Z,18.80
2024-02-19T19:13:44.198Z,18.50
2024-02-19T19:16:11.021Z,18.80
2024-02-19T19:18:37.848Z,22.30
2024-02-19T19:21:04.936Z,25.70
2024-02-19T19:23:31.687Z,26.30
2024-02-19T19:25:58.410Z,26.80
2024-02-19T19:28:25.111Z,14.20
2024-02-19T19:30:51.955Z,15.50
2024-02-19T19:33:19.355Z,13.90
2024-02-19T19:35:46.362Z,13.40
2024-02-19T19:38:13.206Z,12.40
2024-02-19T19:40:39.922Z,12.40
2024-02-19T19:43:07.034Z,16.00
2024-02-19T19:45:33.945Z,13.70
2024-02-19T19:48:00.709Z,15.90
2024-02-19T19:50:27.881Z,11.20
2024-02-19T19:52:54.520Z,14.40
2024-02-19T19:55:21.647Z,15.90
2024-02-19T19:57:48.706Z,9.40
2024-02-19T20:00:16.392Z,11.70
2024-02-19T20:02:44.796Z,13.80
2024-02-19T20:05:12.822Z,8.80
2024-02-19T20:07:39.985Z,12.10
2024-02-19T20:10:07.415Z,11.70
2024-02-19T20:12:34.938Z,12.00
2024-02-19T20:15:02.024Z,8.70
2024-02-19T20:17:28.883Z,7.90
2024-02-19T20:19:55.809Z,6.90
2024-02-19T20:22:22.586Z,7.80
2024-02-19T20:24:49.460Z,9.20
2024-02-19T20:27:16.278Z,10.60
2024-02-19T20:29:42.913Z,9.90
2024-02-19T20:32:09.858Z,11.70
2024-02-19T20:34:37.042Z,9.30
2024-02-19T20:37:04.096Z,9.10
2024-02-19T20:39:31.149Z,6.90
2024-02-19T20:41:57.855Z,8.10
2024-02-19T20:44:24.559Z,7.40
2024-02-19T20:46:51.409Z,8.20
2024-02-19T20:49:18.747Z,8.10
2024-02-19T20:51:45.634Z,6.60
2024-02-19T20:54:12.588Z,7.30
2024-02-19T20:56:39.851Z,8.30
2024-02-19T20:59:06.493Z,7.70
2024-02-19T21:01:33.399Z,7.50
2024-02-19T21:04:00.972Z,6.50
2024-02-19T21:06:28.044Z,5.90
2024-02-19T21:08:54.914Z,7.20
2024-02-19T21:11:22.651Z,5.70
2024-02-19T21:13:49.534Z,6.30
2024-02-19T21:16:16.211Z,6.60
2024-02-19T21:18:47.564Z,8.60
2024-02-19T21:21:22.250Z,9.90
2024-02-19T21:23:56.851Z,9.20
2024-02-19T21:26:23.637Z,7.70
2024-02-19T21:28:50.555Z,10.60
2024-02-19T21:31:17.542Z,23.00
2024-02-19T21:33:44.721Z,14.10
2024-02-19T21:36:11.677Z,7.90
2024-02-19T21:38:38.577Z,7.50
2024-02-19T21:41:05.533Z,7.70
2024-02-19T21:43:32.257Z,7.10
2024-02-19T21:45:59.106Z,10.80
2024-02-19T21:48:26.999Z,11.20
2024-02-19T21:50:54.015Z,15.00
2024-02-19T21:53:20.857Z,11.80
2024-02-19T21:55:47.504Z,11.00
2024-02-19T21:58:14.224Z,9.10
2024-02-19T22:00:41.053Z,11.10
2024-02-19T22:03:07.957Z,10.30
2024-02-19T22:05:35.077Z,8.40
2024-02-19T22:08:01.867Z,9.50
2024-02-19T22:10:28.654Z,7.40
2024-02-19T22:12:55.475Z,7.80
2024-02-19T22:15:22.518Z,7.60
2024-02-19T22:17:49.166Z,7.40
2024-02-19T22:20:16.119Z,6.80
2024-02-19T22:22:42.826Z,13.10
2024-02-19T22:25:09.963Z,15.60
2024-02-19T22:27:36.788Z,13.10
2024-02-19T22:30:03.617Z,13.50
2024-02-19T22:32:30.178Z,11.90
2024-02-19T22:34:57.180Z,10.60
2024-02-19T22:37:24.101Z,8.70
2024-02-19T22:39:50.989Z,7.50
2024-02-19T22:42:17.689Z,7.50
2024-02-19T22:44:44.331Z,6.70
2024-02-19T22:47:11.183Z,6.20
2024-02-19T22:49:38.247Z,7.90
2024-02-19T22:52:06.420Z,7.40
2024-02-19T22:54:33.173Z,7.60
2024-02-19T22:57:00.740Z,7.00
2024-02-19T22:59:27.401Z,8.70
2024-02-19T23:01:55.155Z,7.10
2024-02-19T23:04:22.077Z,6.60
2024-02-19T23:06:49.102Z,6.00
2024-02-19T23:09:15.926Z,8.50
2024-02-19T23:11:42.722Z,7.70
2024-02-19T23:14:09.399Z,7.80
2024-02-19T23:16:36.270Z,18.10
2024-02-19T23:19:03.016Z,13.10
2024-02-19T23:21:29.748Z,9.10
2024-02-19T23:23:56.356Z,7.80
2024-02-19T23:26:23.047Z,6.70
2024-02-19T23:28:49.903Z,7.00
2024-02-19T23:31:16.730Z,7.10
2024-02-19T23:33:43.825Z,6.60
2024-02-19T23:36:10.880Z,5.60
2024-02-19T23:38:37.747Z,5.80
2024-02-19T23:41:04.600Z,5.70
2024-02-19T23:43:31.562Z,7.90
2024-02-19T23:45:59.096Z,6.90
2024-02-19T23:48:26.478Z,6.30
2024-02-19T23:50:53.304Z,5.10
2024-02-19T23:53:21.088Z,6.00
2024-02-19T23:55:47.965Z,5.50
2024-02-19T23:58:14.795Z,6.50
